Time;durP1;ratioP1;P1;durP2;ratioP2;P2;SDS_P1;SDS_P2;PMS_P1;PMS_P2;Temp;Humidity;BMP_temperature;BMP_pressure;BME280_temperature;BME280_humidity;BME280_pressure;Samples;Min_cycle;Max_cycle;Signal;HPM_P1;HPM_P2
2021/12/25 00:01:30;;;;;;;3.97;2.05;;;-0.70;99.90;;;;;;4949385;29;20087;-48
2021/12/25 00:03:57;;;;;;;6.57;2.00;;;-0.70;99.90;;;;;;4950029;29;20051;-47
2021/12/25 00:06:24;;;;;;;6.13;2.38;;;-0.80;99.90;;;;;;4933317;29;20487;-47
2021/12/25 00:08:50;;;;;;;5.57;2.30;;;-0.80;99.90;;;;;;4951172;28;20051;-47
2021/12/25 00:11:16;;;;;;;4.55;2.00;;;-0.90;99.90;;;;;;4949599;28;20047;-47
2021/12/25 00:13:43;;;;;;;7.50;2.03;;;-0.90;99.90;;;;;;4944437;28;20056;-50
2021/12/25 00:16:09;;;;;;;7.25;2.30;;;-0.90;99.90;;;;;;4946632;28;20051;-47
2021/12/25 00:18:35;;;;;;;4.97;2.00;;;-0.90;99.90;;;;;;4947216;28;20110;-49
2021/12/25 00:21:01;;;;;;;6.90;1.63;;;-1.00;99.90;;;;;;4932047;28;20142;-48
2021/12/25 00:23:27;;;;;;;6.13;1.90;;;-1.00;99.90;;;;;;4932700;29;20450;-55
2021/12/25 00:25:59;;;;;;;7.90;2.25;;;-1.00;99.90;;;;;;4932232;29;20110;-48
2021/12/25 00:31:28;;;;;;;7.45;1.50;;;-1.10;99.90;;;;;;4945641;28;20055;-48
2021/12/25 00:34:01;;;;;;;4.13;1.20;;;-1.10;99.90;;;;;;4942801;28;20047;-48
2021/12/25 00:36:27;;;;;;;3.92;1.45;;;-1.10;99.90;;;;;;4925888;29;20621;-49
2021/12/25 00:38:55;;;;;;;9.02;1.65;;;-1.20;99.90;;;;;;4945311;28;20047;-47
2021/12/25 00:41:23;;;;;;;4.00;1.10;;;-1.20;99.90;;;;;;4924870;29;20067;-50
2021/12/25 00:43:49;;;;;;;8.05;1.75;;;-1.20;99.90;;;;;;4928554;28;20051;-48
2021/12/25 00:46:15;;;;;;;3.17;1.40;;;-1.20;99.90;;;;;;4946488;28;20047;-48
2021/12/25 00:48:42;;;;;;;4.60;1.45;;;-1.20;99.90;;;;;;4925984;28;20266;-48
2021/12/25 00:51:08;;;;;;;7.35;1.60;;;-1.30;99.90;;;;;;4923536;28;20150;-48
2021/12/25 00:53:34;;;;;;;4.15;1.42;;;-1.30;99.90;;;;;;4945439;28;20506;-48
2021/12/25 00:55:59;;;;;;;7.65;1.35;;;-1.30;99.90;;;;;;4942560;28;20494;-48
2021/12/25 00:58:25;;;;;;;3.85;1.40;;;-1.40;99.90;;;;;;4945859;28;20443;-47
2021/12/25 01:00:51;;;;;;;4.78;1.58;;;-1.40;99.90;;;;;;4946827;28;20407;-48
2021/12/25 01:03:17;;;;;;;5.90;1.65;;;-1.40;99.90;;;;;;4911438;28;20355;-51
2021/12/25 01:05:44;;;;;;;6.10;1.63;;;-1.40;99.90;;;;;;4939036;29;20055;-47
2021/12/25 01:08:10;;;;;;;4.65;1.30;;;-1.40;99.90;;;;;;4946096;28;20057;-47
2021/12/25 01:10:36;;;;;;;5.65;1.63;;;-1.50;99.90;;;;;;4947295;28;20525;-46
2021/12/25 01:13:20;;;;;;;5.40;1.75;;;-1.50;99.90;;;;;;4926759;28;20660;-48
2021/12/25 01:24:16;;;;;;;7.03;1.27;;;-1.50;99.90;;;;;;4878292;29;20234;-47
2021/12/25 01:37:20;;;;;;;2.50;0.93;;;-1.70;99.90;;;;;;4859906;29;20268;-48
2021/12/25 01:40:13;;;;;;;4.30;1.20;;;-1.70;99.90;;;;;;4876332;29;20128;-48
2021/12/25 01:48:15;;;;;;;4.63;0.90;;;-1.80;99.90;;;;;;4878647;29;20096;-48
2021/12/25 01:50:41;;;;;;;4.22;1.40;;;-1.80;99.90;;;;;;4879913;29;20082;-49
2021/12/25 01:53:07;;;;;;;6.28;1.17;;;-1.80;99.90;;;;;;4871195;29;20619;-48
2021/12/25 01:55:33;;;;;;;2.88;0.93;;;-1.90;99.90;;;;;;4869480;29;20061;-48
2021/12/25 01:58:02;;;;;;;4.65;0.80;;;-1.90;99.90;;;;;;4915140;28;20530;-48
2021/12/25 02:00:34;;;;;;;4.32;1.10;;;-2.00;99.90;;;;;;4927786;29;20055;-48
2021/12/25 02:03:02;;;;;;;2.10;1.10;;;-2.00;99.90;;;;;;4939192;28;20097;-48
2021/12/25 02:05:28;;;;;;;7.25;1.15;;;-2.00;99.90;;;;;;4944410;28;20059;-49
2021/12/25 02:07:59;;;;;;;6.03;1.13;;;-2.00;99.90;;;;;;4944403;28;20110;-48
2021/12/25 02:10:25;;;;;;;5.22;0.90;;;-2.00;99.90;;;;;;4943802;28;20078;-47
2021/12/25 02:12:50;;;;;;;4.00;0.90;;;-2.10;99.90;;;;;;4947997;28;20485;-50
2021/12/25 02:15:21;;;;;;;3.65;1.10;;;-2.10;99.90;;;;;;4928464;29;20502;-47
2021/12/25 02:20:39;;;;;;;4.93;1.35;;;-2.20;99.90;;;;;;4944789;28;20470;-48
2021/12/25 02:23:19;;;;;;;6.03;1.80;;;-2.20;99.90;;;;;;4943874;28;20465;-49
2021/12/25 02:25:46;;;;;;;1.77;0.70;;;-2.20;99.90;;;;;;4927104;29;20056;-48
2021/12/25 02:28:17;;;;;;;5.78;1.33;;;-2.20;99.90;;;;;;4940800;28;20047;-49
2021/12/25 02:30:45;;;;;;;3.13;0.90;;;-2.30;99.90;;;;;;4939696;28;20082;-50
2021/12/25 02:33:11;;;;;;;3.90;1.05;;;-2.30;99.90;;;;;;4947212;28;20047;-52
2021/12/25 02:35:37;;;;;;;5.18;1.83;;;-2.30;99.90;;;;;;4932785;29;20058;-52
2021/12/25 02:38:04;;;;;;;2.83;1.00;;;-2.30;99.90;;;;;;4945038;28;20039;-48
2021/12/25 02:40:31;;;;;;;3.47;1.05;;;-2.40;99.90;;;;;;4919551;29;20059;-47
2021/12/25 02:42:58;;;;;;;3.78;1.55;;;-2.40;99.90;;;;;;4926385;28;20479;-47
2021/12/25 02:45:25;;;;;;;2.20;0.90;;;-2.40;99.90;;;;;;4940610;28;20199;-49
2021/12/25 02:47:55;;;;;;;5.18;1.00;;;-2.50;99.90;;;;;;4943351;28;20055;-47
2021/12/25 02:50:32;;;;;;;6.28;1.20;;;-2.50;99.90;;;;;;4923620;29;20066;-47
2021/12/25 02:53:01;;;;;;;3.85;1.60;;;-2.50;99.90;;;;;;4927365;28;20214;-49
2021/12/25 02:55:28;;;;;;;3.78;1.17;;;-2.50;99.90;;;;;;4928641;29;20043;-47
2021/12/25 02:57:54;;;;;;;4.35;0.90;;;-2.60;99.90;;;;;;4944288;28;20059;-47
2021/12/25 03:00:24;;;;;;;3.28;0.63;;;-2.60;99.90;;;;;;4926067;29;20098;-48
2021/12/25 03:02:50;;;;;;;3.35;0.93;;;-2.60;99.90;;;;;;4941335;28;20047;-48
2021/12/25 03:05:16;;;;;;;5.72;1.08;;;-2.70;99.90;;;;;;4944464;28;20508;-48
2021/12/25 03:07:42;;;;;;;4.53;1.00;;;-2.70;99.90;;;;;;4942224;28;20195;-48
2021/12/25 03:10:11;;;;;;;2.85;0.90;;;-2.70;99.90;;;;;;4943409;28;20141;-49
2021/12/25 03:12:48;;;;;;;9.45;1.70;;;-2.80;99.90;;;;;;4941972;28;20063;-50
2021/12/25 03:15:20;;;;;;;3.42;1.25;;;-2.80;99.90;;;;;;4923676;29;20056;-47
2021/12/25 03:17:46;;;;;;;3.63;0.75;;;-2.80;99.90;;;;;;4948735;28;20517;-48
2021/12/25 03:20:12;;;;;;;8.93;1.95;;;-2.80;99.90;;;;;;4926093;29;20135;-49
2021/12/25 03:22:39;;;;;;;2.03;0.82;;;-2.80;99.90;;;;;;4943586;29;20058;-47
2021/12/25 03:25:10;;;;;;;4.53;1.13;;;-2.90;99.90;;;;;;4944015;28;20060;-48
2021/12/25 03:27:44;;;;;;;4.97;0.98;;;-2.90;99.90;;;;;;4937649;28;20052;-48
2021/12/25 03:30:14;;;;;;;3.00;0.70;;;-2.90;99.90;;;;;;4924113;28;20055;-47
2021/12/25 03:32:40;;;;;;;2.75;1.08;;;-2.90;99.90;;;;;;4925548;29;20058;-48
2021/12/25 03:35:06;;;;;;;1.88;0.98;;;-3.00;99.90;;;;;;4949919;28;20051;-49
2021/12/25 03:37:32;;;;;;;3.15;1.20;;;-3.00;99.90;;;;;;4928769;29;20051;-49
2021/12/25 03:39:58;;;;;;;6.75;1.10;;;-3.00;99.90;;;;;;4945373;28;20388;-51
2021/12/25 03:42:24;;;;;;;3.35;1.05;;;-3.00;99.90;;;;;;4943301;28;20035;-48
2021/12/25 03:44:50;;;;;;;5.97;1.00;;;-3.10;99.90;;;;;;4943031;28;20146;-48
2021/12/25 03:47:34;;;;;;;5.13;1.75;;;-3.10;99.90;;;;;;4948523;28;20082;-47
2021/12/25 03:58:18;;;;;;;3.33;1.83;;;-3.20;99.90;;;;;;4940192;28;20110;-48
2021/12/25 04:00:46;;;;;;;1.83;0.60;;;-3.20;99.90;;;;;;4925346;29;20047;-49
2021/12/25 04:03:21;;;;;;;1.90;0.80;;;-3.20;99.90;;;;;;4941911;28;20047;-48
2021/12/25 04:05:48;;;;;;;3.78;1.20;;;-3.30;99.90;;;;;;4925179;29;20051;-48
2021/12/25 04:08:18;;;;;;;5.90;1.60;;;-3.30;99.90;;;;;;4946122;28;20059;-48
2021/12/25 04:10:46;;;;;;;4.50;0.90;;;-3.40;99.90;;;;;;4923940;28;20055;-47
2021/12/25 04:13:15;;;;;;;2.85;0.90;;;-3.40;99.90;;;;;;4946170;28;20055;-48
2021/12/25 04:15:42;;;;;;;3.35;1.10;;;-3.40;99.90;;;;;;4947501;28;20053;-48
2021/12/25 04:18:08;;;;;;;3.30;0.80;;;-3.40;99.90;;;;;;4951389;28;20162;-48
2021/12/25 04:20:34;;;;;;;3.38;1.00;;;-3.40;99.90;;;;;;4942070;28;20083;-50
2021/12/25 04:23:08;;;;;;;4.93;1.00;;;-3.40;99.90;;;;;;4924532;29;20059;-48
2021/12/25 04:25:35;;;;;;;3.25;2.05;;;-3.50;99.90;;;;;;4945652;29;20114;-48
2021/12/25 04:28:11;;;;;;;2.33;1.10;;;-3.50;99.90;;;;;;4947214;28;20058;-51
2021/12/25 04:30:58;;;;;;;1.75;0.90;;;-3.50;99.90;;;;;;4947296;29;20058;-51
2021/12/25 05:01:45;;;;;;;2.63;0.65;;;-3.70;99.90;;;;;;4946122;28;20051;-48
2021/12/25 05:05:57;;;;;;;2.20;0.60;;;-3.80;99.90;;;;;;4941504;28;20110;-48
2021/12/25 05:08:23;;;;;;;2.55;0.90;;;-3.80;99.90;;;;;;4945296;28;20051;-48
2021/12/25 05:10:49;;;;;;;1.75;0.68;;;-3.80;99.90;;;;;;4945228;28;20047;-47
2021/12/25 05:13:14;;;;;;;1.92;1.17;;;-3.90;99.90;;;;;;4945790;28;20474;-49
2021/12/25 05:15:41;;;;;;;2.92;0.80;;;-3.90;99.90;;;;;;4924065;29;20574;-49
2021/12/25 05:18:07;;;;;;;3.95;0.90;;;-3.90;99.90;;;;;;4947205;28;20105;-48
2021/12/25 05:20:33;;;;;;;2.90;0.90;;;-3.90;99.90;;;;;;4927707;29;20565;-47
2021/12/25 05:22:58;;;;;;;3.00;0.50;;;-3.90;99.90;;;;;;4945918;28;20062;-48
2021/12/25 05:25:24;;;;;;;2.58;0.73;;;-3.90;99.90;;;;;;4950026;28;20055;-48
2021/12/25 05:27:50;;;;;;;2.72;0.70;;;-4.00;99.90;;;;;;4948661;28;20491;-48
2021/12/25 05:30:18;;;;;;;3.97;0.90;;;-4.00;99.90;;;;;;4927888;29;20174;-48
2021/12/25 05:32:45;;;;;;;1.75;0.80;;;-4.00;99.90;;;;;;4944820;28;20059;-48
2021/12/25 05:35:11;;;;;;;1.25;0.82;;;-4.00;99.90;;;;;;4931504;29;20103;-48
2021/12/25 05:37:37;;;;;;;1.58;0.70;;;-4.00;99.90;;;;;;4927787;28;20515;-47
2021/12/25 05:40:04;;;;;;;1.27;0.63;;;-4.00;99.90;;;;;;4944494;28;20467;-48
2021/12/25 05:42:31;;;;;;;5.57;1.15;;;-4.00;99.90;;;;;;4944245;28;20494;-49
2021/12/25 05:44:56;;;;;;;2.95;1.13;;;-4.00;99.90;;;;;;4947282;28;20047;-48
2021/12/25 05:47:22;;;;;;;3.50;0.90;;;-4.10;99.90;;;;;;4930206;29;20422;-49
2021/12/25 05:49:48;;;;;;;4.35;0.80;;;-4.10;99.90;;;;;;4946475;28;20039;-48
2021/12/25 05:52:14;;;;;;;1.92;1.30;;;-4.10;99.90;;;;;;4943503;28;20585;-50
2021/12/25 05:54:40;;;;;;;3.15;0.90;;;-4.10;99.90;;;;;;4938018;28;20086;-48
2021/12/25 05:57:09;;;;;;;3.05;1.17;;;-4.10;99.90;;;;;;4940272;28;20582;-48
2021/12/25 05:59:34;;;;;;;5.85;1.25;;;-4.10;99.90;;;;;;4926941;29;20051;-47
2021/12/25 06:02:00;;;;;;;3.03;0.90;;;-4.10;99.90;;;;;;4944588;28;20058;-48
2021/12/25 06:04:26;;;;;;;2.75;0.90;;;-4.10;99.90;;;;;;4944754;28;20599;-48
2021/12/25 06:06:52;;;;;;;3.95;0.98;;;-4.10;99.90;;;;;;4943460;28;20426;-48
2021/12/25 06:09:18;;;;;;;5.30;1.00;;;-4.10;99.90;;;;;;4944744;28;20062;-48
2021/12/25 06:11:45;;;;;;;2.72;0.75;;;-4.10;99.90;;;;;;4943405;28;20106;-48
2021/12/25 06:14:18;;;;;;;2.25;1.08;;;-4.10;99.90;;;;;;4927470;29;20558;-48
2021/12/25 06:16:44;;;;;;;3.22;0.70;;;-4.10;99.90;;;;;;4943344;28;20047;-48
2021/12/25 06:19:10;;;;;;;4.15;1.05;;;-4.20;99.90;;;;;;4926733;29;20059;-48
2021/12/25 06:21:36;;;;;;;3.80;0.88;;;-4.20;99.90;;;;;;4942495;28;20056;-47
2021/12/25 06:24:04;;;;;;;2.58;1.17;;;-4.20;99.90;;;;;;4924304;29;20077;-48
2021/12/25 06:26:30;;;;;;;1.55;1.00;;;-4.20;99.90;;;;;;4925361;28;20051;-49
2021/12/25 06:28:56;;;;;;;3.03;0.80;;;-4.20;99.90;;;;;;4944686;28;20062;-47
2021/12/25 06:31:22;;;;;;;3.05;1.00;;;-4.20;99.90;;;;;;4945314;28;20046;-48
2021/12/25 06:33:48;;;;;;;4.15;1.02;;;-4.30;99.90;;;;;;4946974;28;20078;-48
2021/12/25 06:36:14;;;;;;;3.55;0.70;;;-4.30;99.90;;;;;;4945501;28;20051;-48
2021/12/25 06:38:41;;;;;;;2.92;1.08;;;-4.30;99.90;;;;;;4944769;28;20520;-48
2021/12/25 06:41:07;;;;;;;1.10;0.60;;;-4.30;99.90;;;;;;4944575;28;20126;-51
2021/12/25 06:43:35;;;;;;;6.68;0.93;;;-4.30;99.90;;;;;;4944622;28;20050;-47
2021/12/25 06:46:03;;;;;;;2.55;0.80;;;-4.30;99.90;;;;;;4945335;28;20502;-50
2021/12/25 06:48:29;;;;;;;1.70;0.70;;;-4.30;99.90;;;;;;4946271;28;20050;-49
2021/12/25 06:50:55;;;;;;;1.58;0.60;;;-4.40;99.90;;;;;;4951906;28;20058;-48
2021/12/25 06:53:21;;;;;;;2.60;0.80;;;-4.40;99.90;;;;;;4928270;29;20193;-51
2021/12/25 06:55:47;;;;;;;4.65;1.30;;;-4.40;99.90;;;;;;4943352;28;20398;-48
2021/12/25 06:58:13;;;;;;;1.67;0.88;;;-4.40;99.90;;;;;;4943174;28;20134;-47
2021/12/25 07:00:39;;;;;;;3.92;0.80;;;-4.50;99.90;;;;;;4925107;28;20061;-49
2021/12/25 07:03:04;;;;;;;1.35;0.73;;;-4.50;99.90;;;;;;4942190;28;20061;-47
2021/12/25 07:05:35;;;;;;;1.58;0.68;;;-4.50;99.90;;;;;;4940367;28;20463;-47
2021/12/25 07:08:01;;;;;;;1.98;0.70;;;-4.50;99.90;;;;;;4943396;28;20090;-49
2021/12/25 07:10:27;;;;;;;6.13;1.80;;;-4.50;99.90;;;;;;4940915;28;20146;-48
2021/12/25 07:12:54;;;;;;;2.53;0.90;;;-4.50;99.90;;;;;;4952535;28;20053;-48
2021/12/25 07:15:20;;;;;;;1.65;0.77;;;-4.60;99.90;;;;;;4924240;28;20125;-48
2021/12/25 07:17:46;;;;;;;6.88;1.10;;;-4.60;99.90;;;;;;4943291;28;20055;-48
2021/12/25 07:20:12;;;;;;;2.33;1.00;;;-4.60;99.90;;;;;;4943669;28;20097;-47
2021/12/25 07:22:39;;;;;;;2.35;0.82;;;-4.60;99.90;;;;;;4943723;28;20478;-48
2021/12/25 07:25:06;;;;;;;1.90;0.80;;;-4.70;99.90;;;;;;4943818;28;20525;-47
2021/12/25 07:27:32;;;;;;;3.05;1.35;;;-4.70;99.90;;;;;;4950626;28;20043;-47
2021/12/25 07:29:58;;;;;;;2.17;0.82;;;-4.70;99.90;;;;;;4943459;28;20126;-47
2021/12/25 07:32:24;;;;;;;0.88;0.60;;;-4.70;99.90;;;;;;4943242;28;20089;-48
2021/12/25 07:34:51;;;;;;;3.03;1.13;;;-4.70;99.90;;;;;;4949112;28;20134;-49
2021/12/25 07:37:18;;;;;;;1.35;0.55;;;-4.70;99.90;;;;;;4922646;29;20051;-48
2021/12/25 07:39:44;;;;;;;3.47;1.50;;;-4.80;99.90;;;;;;4944027;28;20097;-47
2021/12/25 07:42:11;;;;;;;1.60;0.88;;;-4.80;99.90;;;;;;4928059;29;20446;-48
2021/12/25 07:44:38;;;;;;;1.35;0.73;;;-4.80;99.90;;;;;;4927829;29;20055;-51
2021/12/25 07:47:09;;;;;;;3.97;1.10;;;-4.70;99.90;;;;;;4947080;28;20170;-47
2021/12/25 07:49:35;;;;;;;1.42;0.60;;;-4.80;99.90;;;;;;4929878;29;20506;-47
2021/12/25 07:52:01;;;;;;;2.85;0.93;;;-4.80;99.90;;;;;;4948144;28;20074;-47
2021/12/25 07:54:27;;;;;;;1.60;0.80;;;-4.80;99.90;;;;;;4949538;28;20063;-48
2021/12/25 07:56:52;;;;;;;1.98;0.60;;;-4.80;99.90;;;;;;4929571;29;20105;-48
2021/12/25 07:59:20;;;;;;;2.03;0.80;;;-4.70;99.90;;;;;;4929356;28;20058;-47
2021/12/25 08:01:51;;;;;;;3.03;0.60;;;-4.70;99.90;;;;;;4929116;29;20312;-47
2021/12/25 08:04:18;;;;;;;2.10;0.60;;;-4.70;99.90;;;;;;4943865;28;20047;-48
2021/12/25 08:06:44;;;;;;;1.55;0.70;;;-4.70;99.90;;;;;;4946632;28;20113;-48
2021/12/25 08:09:10;;;;;;;1.98;0.80;;;-4.70;99.90;;;;;;4949737;28;20047;-47
2021/12/25 08:11:36;;;;;;;1.80;0.63;;;-4.70;99.90;;;;;;4930618;29;20070;-48
2021/12/25 08:14:02;;;;;;;2.78;0.82;;;-4.80;99.90;;;;;;4942986;28;20047;-47
2021/12/25 08:16:28;;;;;;;2.13;1.00;;;-4.70;99.90;;;;;;4946948;28;20066;-48
2021/12/25 08:18:54;;;;;;;1.60;0.80;;;-4.70;99.90;;;;;;4945639;28;20051;-48
2021/12/25 08:21:20;;;;;;;1.80;0.70;;;-4.70;99.90;;;;;;4946785;28;20077;-48
2021/12/25 08:23:47;;;;;;;1.77;0.70;;;-4.70;99.90;;;;;;4937853;29;20529;-48
2021/12/25 08:26:13;;;;;;;3.20;0.90;;;-4.70;99.90;;;;;;4945720;28;20055;-47
2021/12/25 08:28:38;;;;;;;2.83;0.80;;;-4.70;99.90;;;;;;4930177;28;20459;-48
2021/12/25 08:31:04;;;;;;;1.60;0.57;;;-4.70;99.90;;;;;;4945574;28;20047;-47
2021/12/25 08:33:30;;;;;;;2.55;0.80;;;-4.70;99.90;;;;;;4947350;28;20058;-48
2021/12/25 08:35:56;;;;;;;3.17;0.80;;;-4.70;99.90;;;;;;4947366;28;20055;-49
2021/12/25 08:38:21;;;;;;;3.53;0.95;;;-4.70;99.90;;;;;;4928355;28;20047;-48
2021/12/25 08:40:47;;;;;;;6.03;1.40;;;-4.70;99.90;;;;;;4939683;28;20039;-47
2021/12/25 08:43:16;;;;;;;2.55;0.70;;;-4.70;99.90;;;;;;4941201;28;20141;-50
2021/12/25 08:45:49;;;;;;;2.22;0.80;;;-4.70;99.90;;;;;;4943193;28;20046;-48
2021/12/25 08:48:21;;;;;;;2.40;1.00;;;-4.70;99.90;;;;;;4942624;28;20047;-48
2021/12/25 08:50:50;;;;;;;2.08;0.77;;;-4.70;99.90;;;;;;4944835;28;20077;-48
2021/12/25 08:53:18;;;;;;;2.03;0.80;;;-4.70;99.90;;;;;;4946975;28;20055;-48
2021/12/25 08:55:45;;;;;;;4.38;0.70;;;-4.70;99.90;;;;;;4946353;28;20089;-49
2021/12/25 08:58:11;;;;;;;4.68;1.77;;;-4.70;99.90;;;;;;4940273;28;20186;-52
2021/12/25 09:00:37;;;;;;;2.08;0.80;;;-4.60;99.90;;;;;;4946879;28;20055;-50
2021/12/25 09:03:03;;;;;;;3.85;0.93;;;-4.60;99.90;;;;;;4924374;29;20402;-48
2021/12/25 09:05:29;;;;;;;3.58;1.02;;;-4.50;99.90;;;;;;4925294;28;20143;-47
2021/12/25 09:07:55;;;;;;;1.73;0.70;;;-4.50;99.90;;;;;;4922858;29;20380;-47
2021/12/25 09:10:22;;;;;;;6.22;0.90;;;-4.50;99.90;;;;;;4944154;28;20051;-49
2021/12/25 09:12:49;;;;;;;3.58;1.00;;;-4.50;99.90;;;;;;4941911;28;20157;-49
2021/12/25 09:15:16;;;;;;;3.53;0.90;;;-4.40;99.90;;;;;;4944024;28;20051;-49
2021/12/25 09:17:42;;;;;;;2.70;1.27;;;-4.40;99.90;;;;;;4935660;28;20516;-48
2021/12/25 09:20:09;;;;;;;2.25;0.90;;;-4.40;99.90;;;;;;4926178;28;20543;-48
2021/12/25 09:22:35;;;;;;;1.77;0.90;;;-4.30;99.90;;;;;;4944820;28;20078;-49
2021/12/25 09:25:01;;;;;;;2.67;0.88;;;-4.30;99.90;;;;;;4923385;28;20575;-48
2021/12/25 09:27:27;;;;;;;1.00;0.70;;;-4.30;99.90;;;;;;4927474;29;20558;-48
2021/12/25 09:29:53;;;;;;;1.88;0.80;;;-4.30;99.90;;;;;;4944492;28;20051;-49
2021/12/25 09:32:20;;;;;;;2.08;0.70;;;-4.20;99.90;;;;;;4927308;29;20125;-48
2021/12/25 09:34:45;;;;;;;6.43;1.20;;;-4.20;99.90;;;;;;4950068;28;20406;-49
2021/12/25 09:37:12;;;;;;;2.58;0.95;;;-4.10;99.90;;;;;;4945870;28;20047;-48
2021/12/25 09:39:38;;;;;;;2.97;0.80;;;-4.10;99.90;;;;;;4947922;28;20097;-48
2021/12/25 09:42:05;;;;;;;4.82;1.52;;;-4.00;99.90;;;;;;4945194;28;20441;-49
2021/12/25 09:44:31;;;;;;;3.20;1.35;;;-4.00;99.90;;;;;;4945607;28;20102;-48
2021/12/25 09:46:57;;;;;;;5.03;1.58;;;-3.90;99.90;;;;;;4945075;28;20059;-48
2021/12/25 09:49:23;;;;;;;1.83;1.00;;;-3.90;99.90;;;;;;4923998;28;20059;-48
2021/12/25 09:51:49;;;;;;;2.17;1.00;;;-3.80;99.90;;;;;;4945138;28;20074;-49
2021/12/25 09:54:15;;;;;;;3.58;1.25;;;-3.70;99.90;;;;;;4945879;28;20118;-50
2021/12/25 09:56:45;;;;;;;5.00;0.90;;;-3.60;99.90;;;;;;4924460;29;20052;-48
2021/12/25 09:59:12;;;;;;;2.40;0.85;;;-3.60;99.90;;;;;;4944076;28;20157;-47
2021/12/25 10:01:44;;;;;;;5.00;1.17;;;-3.50;99.90;;;;;;4942188;28;20067;-50
2021/12/25 10:04:29;;;;;;;3.28;0.82;;;-3.50;99.90;;;;;;4943131;28;20521;-48
2021/12/25 10:06:55;;;;;;;5.55;0.82;;;-3.40;99.90;;;;;;4941563;28;20047;-49
2021/12/25 10:09:24;;;;;;;8.05;1.23;;;-3.40;99.90;;;;;;4943024;28;20510;-48
2021/12/25 10:12:14;;;;;;;2.58;0.75;;;-3.30;99.90;;;;;;4942209;28;20467;-49
2021/12/25 10:14:50;;;;;;;1.15;0.50;;;-3.20;99.90;;;;;;4944647;28;20477;-47
2021/12/25 10:17:23;;;;;;;1.65;0.73;;;-3.20;99.90;;;;;;4942102;28;20057;-49
2021/12/25 10:20:11;;;;;;;3.97;1.10;;;-3.10;99.90;;;;;;4934486;28;20054;-48
2021/12/25 10:23:12;;;;;;;3.28;0.88;;;-3.10;99.90;;;;;;4944464;29;20133;-49
2021/12/25 10:25:48;;;;;;;3.25;0.80;;;-3.00;99.90;;;;;;4943795;29;20111;-48
2021/12/25 10:28:17;;;;;;;2.38;0.73;;;-3.00;99.90;;;;;;4909876;29;20059;-48
2021/12/25 10:30:53;;;;;;;2.50;1.35;;;-3.00;99.90;;;;;;4926128;29;20568;-48
2021/12/25 10:33:35;;;;;;;5.18;1.25;;;-3.00;99.90;;;;;;4943918;29;20083;-48
2021/12/25 10:36:07;;;;;;;2.78;0.88;;;-3.00;99.90;;;;;;4925131;29;20061;-49
2021/12/25 10:38:33;;;;;;;3.90;0.88;;;-3.00;99.90;;;;;;4924816;28;20078;-50
2021/12/25 10:41:18;;;;;;;3.70;0.90;;;-2.90;99.90;;;;;;4920179;29;20054;-47
2021/12/25 10:43:44;;;;;;;2.85;0.80;;;-2.90;99.90;;;;;;4922183;29;20043;-49
2021/12/25 10:46:10;;;;;;;2.50;0.90;;;-2.90;99.90;;;;;;4934581;28;20047;-50
2021/12/25 10:48:36;;;;;;;2.30;1.00;;;-2.80;99.90;;;;;;4936950;28;20051;-48
2021/12/25 10:51:03;;;;;;;3.45;1.10;;;-2.80;99.90;;;;;;4942445;28;20049;-47
2021/12/25 10:53:42;;;;;;;2.65;0.98;;;-2.80;99.90;;;;;;4944109;28;20055;-49
2021/12/25 10:56:13;;;;;;;2.70;0.63;;;-2.70;99.90;;;;;;4939864;28;20054;-48
2021/12/25 10:58:44;;;;;;;3.22;0.90;;;-2.70;99.90;;;;;;4935604;28;20142;-48
2021/12/25 11:01:14;;;;;;;3.15;0.70;;;-2.70;99.90;;;;;;4929225;29;20062;-48
2021/12/25 11:03:43;;;;;;;1.25;0.70;;;-2.70;99.90;;;;;;4926488;28;20051;-49
2021/12/25 11:06:16;;;;;;;3.83;0.90;;;-2.60;99.90;;;;;;4943166;28;20047;-48
2021/12/25 11:08:43;;;;;;;2.10;0.60;;;-2.60;99.90;;;;;;4943123;28;20091;-48
2021/12/25 11:11:12;;;;;;;2.85;0.95;;;-2.60;99.90;;;;;;4942769;28;20061;-49
2021/12/25 11:13:53;;;;;;;4.32;1.15;;;-2.60;99.90;;;;;;4942682;28;20569;-50
2021/12/25 11:16:27;;;;;;;5.43;0.93;;;-2.50;99.90;;;;;;4943353;28;20107;-48
2021/12/25 11:19:27;;;;;;;3.88;1.00;;;-2.50;99.90;;;;;;4941999;28;20513;-47
2021/12/25 11:21:54;;;;;;;3.35;0.70;;;-2.50;99.90;;;;;;4925212;29;20117;-47
2021/12/25 11:24:31;;;;;;;2.30;0.70;;;-2.50;99.90;;;;;;4943306;28;20114;-48
2021/12/25 11:27:03;;;;;;;2.13;0.77;;;-2.50;99.90;;;;;;4926428;29;20059;-48
2021/12/25 11:29:31;;;;;;;3.17;0.63;;;-2.50;99.90;;;;;;4939643;28;20054;-49
2021/12/25 11:31:58;;;;;;;3.75;0.77;;;-2.40;99.90;;;;;;4941535;28;20546;-48
2021/12/25 11:34:26;;;;;;;3.13;0.65;;;-2.40;99.90;;;;;;4944468;28;20074;-48
2021/12/25 11:36:53;;;;;;;4.18;0.93;;;-2.40;99.90;;;;;;4942502;28;20054;-49
2021/12/25 11:39:21;;;;;;;3.80;0.77;;;-2.30;99.90;;;;;;4940389;28;20514;-49
2021/12/25 11:41:48;;;;;;;1.90;0.80;;;-2.30;99.90;;;;;;4941054;28;20049;-48
2021/12/25 11:44:32;;;;;;;2.10;0.85;;;-2.30;99.90;;;;;;4941339;28;20379;-49
2021/12/25 11:46:58;;;;;;;4.97;0.90;;;-2.30;99.90;;;;;;4942257;28;20047;-48
2021/12/25 11:49:24;;;;;;;1.08;0.80;;;-2.30;99.90;;;;;;4942080;28;20062;-48
2021/12/25 11:51:51;;;;;;;7.10;1.13;;;-2.20;99.90;;;;;;4940786;28;20039;-49
2021/12/25 11:59:46;;;;;;;2.67;0.80;;;-2.20;99.90;;;;;;4936695;28;20054;-47
2021/12/25 12:02:32;;;;;;;1.83;0.73;;;-2.20;99.90;;;;;;4944362;28;20134;-49
2021/12/25 12:05:17;;;;;;;3.03;1.45;;;-2.10;99.90;;;;;;4947058;28;20055;-48
2021/12/25 12:08:10;;;;;;;3.95;1.17;;;-2.10;99.90;;;;;;4925981;29;20082;-50
2021/12/25 12:10:45;;;;;;;1.38;0.60;;;-2.10;99.90;;;;;;4936218;28;20164;-48
2021/12/25 12:13:14;;;;;;;2.47;0.77;;;-2.10;99.90;;;;;;4941830;28;20059;-48
2021/12/25 12:15:49;;;;;;;2.10;0.90;;;-2.10;99.90;;;;;;4922767;29;20063;-48
2021/12/25 12:18:24;;;;;;;2.28;0.80;;;-2.10;99.90;;;;;;4938568;28;20118;-49
2021/12/25 12:20:51;;;;;;;3.00;0.77;;;-2.10;99.90;;;;;;4937202;28;20242;-48
2021/12/25 12:23:49;;;;;;;1.50;0.57;;;-2.10;99.90;;;;;;4925252;29;20052;-48
2021/12/25 12:26:58;;;;;;;3.53;0.80;;;-2.00;99.90;;;;;;4943511;28;20414;-48
2021/12/25 12:29:39;;;;;;;4.15;1.10;;;-2.00;99.90;;;;;;4885007;29;20192;-48
2021/12/25 12:32:32;;;;;;;3.05;0.77;;;-2.00;99.90;;;;;;4883577;29;20519;-48
2021/12/25 12:34:59;;;;;;;1.83;0.75;;;-2.00;99.90;;;;;;4866037;29;20095;-47
2021/12/25 12:37:26;;;;;;;4.40;0.98;;;-2.00;99.90;;;;;;4879447;29;20049;-48
2021/12/25 12:39:56;;;;;;;1.77;0.73;;;-2.00;99.90;;;;;;4864103;29;20124;-48
2021/12/25 12:42:44;;;;;;;5.55;1.02;;;-1.90;99.90;;;;;;4884062;29;20057;-49
2021/12/25 12:45:19;;;;;;;2.90;0.73;;;-1.90;99.90;;;;;;4880173;29;20795;-49
2021/12/25 12:48:14;;;;;;;2.63;1.05;;;-1.90;99.90;;;;;;4874440;29;20617;-50
2021/12/25 12:51:01;;;;;;;1.85;0.70;;;-1.90;99.90;;;;;;4879695;29;20056;-49
2021/12/25 12:53:38;;;;;;;1.63;0.80;;;-1.90;99.90;;;;;;4886102;29;20439;-49
2021/12/25 12:56:04;;;;;;;3.92;0.98;;;-1.80;99.90;;;;;;4875224;29;20055;-48
2021/12/25 12:58:30;;;;;;;4.15;0.85;;;-1.90;99.90;;;;;;4877543;29;20056;-47
2021/12/25 13:01:02;;;;;;;2.25;0.70;;;-1.80;99.90;;;;;;4868507;29;20136;-47
2021/12/25 13:03:29;;;;;;;7.45;1.70;;;-1.80;99.90;;;;;;4882536;29;20063;-47
2021/12/25 13:06:06;;;;;;;2.85;0.90;;;-1.80;99.90;;;;;;4878222;29;20149;-47
2021/12/25 13:08:42;;;;;;;1.20;0.68;;;-1.80;99.90;;;;;;4948621;28;20082;-48
2021/12/25 13:11:21;;;;;;;2.30;0.98;;;-1.80;99.90;;;;;;4931809;28;20782;-47
2021/12/25 13:14:04;;;;;;;1.45;0.75;;;-1.80;99.90;;;;;;4946626;28;20129;-47
2021/12/25 13:16:40;;;;;;;3.72;0.85;;;-1.80;99.90;;;;;;4932823;28;20277;-48
2021/12/25 13:19:07;;;;;;;1.80;0.90;;;-1.80;99.90;;;;;;4946414;28;20058;-47
2021/12/25 13:21:34;;;;;;;2.83;0.93;;;-1.80;99.90;;;;;;4939045;28;20083;-47
2021/12/25 13:24:11;;;;;;;2.15;0.82;;;-1.80;99.90;;;;;;4940358;28;20066;-47
2021/12/25 13:26:41;;;;;;;2.55;0.77;;;-1.80;99.90;;;;;;4936743;28;20043;-48
2021/12/25 13:29:09;;;;;;;1.58;0.82;;;-1.80;99.90;;;;;;4920648;28;20055;-48
2021/12/25 13:31:39;;;;;;;2.15;1.05;;;-1.90;99.90;;;;;;4938295;28;20103;-50
2021/12/25 13:34:13;;;;;;;3.88;0.80;;;-1.90;99.90;;;;;;4939427;28;20498;-48
2021/12/25 13:36:41;;;;;;;2.45;0.80;;;-1.90;99.90;;;;;;4937106;28;20055;-47
2021/12/25 13:39:11;;;;;;;0.93;0.55;;;-1.90;99.90;;;;;;4938837;28;20055;-48
2021/12/25 13:41:55;;;;;;;2.55;0.82;;;-1.90;99.90;;;;;;4918094;29;20115;-48
2021/12/25 13:44:25;;;;;;;;;;;-1.90;99.90;;;;;;4939299;28;20102;-48
2021/12/25 13:47:01;;;;;;;4.40;1.00;;;-1.90;99.90;;;;;;4939166;28;19953;-47
2021/12/25 13:49:31;;;;;;;2.53;1.10;;;-1.90;99.90;;;;;;4941789;28;20075;-48
2021/12/25 13:52:00;;;;;;;3.00;1.02;;;-1.90;99.90;;;;;;4937283;28;20066;-47
2021/12/25 13:54:26;;;;;;;2.28;0.80;;;-1.90;99.90;;;;;;4938109;28;20047;-47
2021/12/25 13:56:58;;;;;;;2.45;0.90;;;-2.00;99.90;;;;;;4937210;28;20130;-47
2021/12/25 13:59:24;;;;;;;2.75;0.73;;;-2.00;99.90;;;;;;4942910;28;20057;-49
2021/12/25 14:02:02;;;;;;;3.30;0.75;;;-2.00;99.90;;;;;;4937654;28;20055;-48
2021/12/25 14:04:27;;;;;;;2.97;0.73;;;-2.00;99.90;;;;;;4938528;28;20158;-47
2021/12/25 14:06:53;;;;;;;2.97;0.80;;;-2.00;99.90;;;;;;4940189;28;20265;-46
2021/12/25 14:09:19;;;;;;;3.17;0.82;;;-2.10;99.90;;;;;;4922161;29;20055;-48
2021/12/25 14:11:54;;;;;;;2.75;0.70;;;-2.10;99.90;;;;;;4935960;28;20043;-47
2021/12/25 14:14:20;;;;;;;3.03;0.80;;;-2.10;99.90;;;;;;4925174;29;20463;-48